North Woods Beach, Wisconsin
Current Conditions -  °F | °C
As of 2:53 AM on Friday 31 Oct 2014 (Local Time) from KHYR Reporting Station
Overcast Overcast  
Wind Chill: 20°   Ceiling: 4300
Heat Index: 30°   Visibility: 10mi
Dew Point: 20°   Wind: 14mph
Humidity: 66%   Direction: 360°N
Pressure: 30.36"   Gusts: 23mph
Location:  46.0387°N, 91.2627°W
Report Text: KHYR 310753Z AUTO 36012G20KT 10SM OVC043 M01/M07 A3036 RMK AO2 UPB12E14SNE12 SLP294 P0000 T10111067
Loading
Personal Weather Stations






























Interactive Weather Map
Tropical Storm Tracking
New forecast layout! Learn more

10-Day Weather Forecast

Advertisements
Track Severe Weather on mobile